Time;durP1;ratioP1;P1;durP2;ratioP2;P2;SDS_P1;SDS_P2;PMS_P1;PMS_P2;Temp;Humidity;BMP_temperature;BMP_pressure;BME280_temperature;BME280_humidity;BME280_pressure;Samples;Min_cycle;Max_cycle;Signal;HPM_P1;HPM_P2
2022/11/24 00:00:48;;;;;;;23.00;3.60;;;7.60;99.90;;;;;;5073523;28;20028;-79
2022/11/24 00:03:14;;;;;;;16.17;2.67;;;7.60;99.90;;;;;;5074146;28;20035;-83
2022/11/24 00:05:40;;;;;;;25.17;3.97;;;7.60;99.90;;;;;;5072949;28;20351;-83
2022/11/24 00:08:06;;;;;;;18.93;3.13;;;7.60;99.90;;;;;;5072791;28;20024;-78
2022/11/24 00:10:32;;;;;;;18.57;2.80;;;7.60;99.90;;;;;;5072038;28;20082;-78
2022/11/24 00:13:10;;;;;;;14.40;2.75;;;7.70;99.90;;;;;;5070042;28;20416;-81
2022/11/24 00:15:36;;;;;;;20.27;2.60;;;7.60;99.90;;;;;;5070132;28;20324;-80
2022/11/24 00:18:01;;;;;;;25.37;3.47;;;7.60;99.90;;;;;;5080196;28;20040;-80
2022/11/24 00:20:27;;;;;;;19.27;2.47;;;7.60;99.90;;;;;;5092092;28;20028;-77
2022/11/24 00:22:53;;;;;;;15.67;2.23;;;7.60;99.90;;;;;;5092231;28;20070;-78
2022/11/24 00:25:18;;;;;;;14.27;1.70;;;7.70;99.90;;;;;;5095429;28;20028;-77
2022/11/24 00:27:44;;;;;;;16.40;2.03;;;7.60;99.90;;;;;;5094371;28;20024;-86
2022/11/24 00:30:10;;;;;;;11.80;2.20;;;7.60;99.90;;;;;;5076914;28;20043;-80
2022/11/24 00:32:36;;;;;;;13.27;2.03;;;7.70;99.90;;;;;;5077719;28;20085;-84
2022/11/24 00:35:02;;;;;;;14.70;2.65;;;7.70;99.90;;;;;;5075497;28;20032;-78
2022/11/24 00:37:28;;;;;;;8.63;1.83;;;7.70;99.90;;;;;;5076847;28;20323;-85
2022/11/24 00:39:53;;;;;;;12.63;2.75;;;7.70;99.90;;;;;;5076488;28;20107;-77
2022/11/24 00:42:19;;;;;;;10.33;2.47;;;7.70;99.90;;;;;;5091851;28;20028;-78
2022/11/24 00:44:45;;;;;;;15.43;2.53;;;7.60;99.90;;;;;;5092732;28;20396;-84
2022/11/24 00:47:10;;;;;;;10.03;2.77;;;7.60;99.90;;;;;;5092696;28;20028;-80
2022/11/24 00:49:36;;;;;;;29.97;3.40;;;7.60;99.90;;;;;;5094998;28;20023;-80
2022/11/24 00:52:02;;;;;;;15.80;2.17;;;7.60;99.90;;;;;;5095100;28;20073;-83
2022/11/24 00:54:27;;;;;;;17.10;2.30;;;7.70;99.90;;;;;;5092860;28;20326;-83
2022/11/24 00:56:53;;;;;;;18.60;2.57;;;7.70;99.90;;;;;;5075455;28;20040;-83
2022/11/24 00:59:19;;;;;;;24.60;2.70;;;7.70;99.90;;;;;;5091001;28;20103;-79
2022/11/24 01:01:45;;;;;;;24.30;2.78;;;7.70;99.90;;;;;;5075364;28;20040;-83
2022/11/24 01:04:10;;;;;;;13.10;2.27;;;7.70;99.90;;;;;;5076742;28;20028;-79
2022/11/24 01:06:36;;;;;;;21.27;2.40;;;7.70;99.90;;;;;;5098534;28;20156;-79
2022/11/24 01:09:02;;;;;;;15.13;2.67;;;7.60;99.90;;;;;;5097863;28;20024;-84
2022/11/24 01:14:16;;;;;;;13.95;2.25;;;7.60;99.90;;;;;;5096007;28;20045;-81
2022/11/24 01:16:41;;;;;;;12.83;2.20;;;7.60;99.90;;;;;;5090855;28;20389;-81
2022/11/24 01:19:07;;;;;;;16.48;2.80;;;7.60;99.90;;;;;;5091642;28;20119;-77
2022/11/24 01:21:33;;;;;;;23.63;3.33;;;7.60;99.90;;;;;;5098795;28;20020;-82
2022/11/24 01:23:58;;;;;;;19.10;2.33;;;7.50;99.90;;;;;;5101398;28;20085;-79
2022/11/24 01:26:24;;;;;;;23.20;3.10;;;7.50;99.90;;;;;;5095476;28;20024;-81
2022/11/24 01:28:55;;;;;;;13.77;2.57;;;7.50;99.90;;;;;;5083467;28;20115;-76
2022/11/24 01:31:21;;;;;;;18.33;3.30;;;7.50;99.90;;;;;;5088944;28;20028;-83
2022/11/24 01:33:47;;;;;;;18.52;2.38;;;7.50;99.90;;;;;;5082913;28;20049;-81
2022/11/24 01:36:13;;;;;;;20.43;2.57;;;7.40;99.90;;;;;;5070958;28;20028;-84
2022/11/24 01:38:38;;;;;;;15.43;3.03;;;7.40;99.90;;;;;;5087118;28;20021;-81
2022/11/24 01:41:25;;;;;;;20.70;3.40;;;7.40;99.90;;;;;;5074010;28;20024;-83
2022/11/24 01:43:52;;;;;;;11.32;2.40;;;7.40;99.90;;;;;;5074588;28;20160;-84
2022/11/24 01:46:40;;;;;;;20.90;3.20;;;7.40;99.90;;;;;;5093366;28;20081;-82
2022/11/24 01:49:44;;;;;;;15.98;3.17;;;7.40;99.90;;;;;;5079375;28;20025;-84
2022/11/24 01:52:16;;;;;;;18.35;2.65;;;7.40;99.90;;;;;;5100134;28;20042;-77
2022/11/24 01:54:50;;;;;;;12.23;2.28;;;7.40;99.90;;;;;;5099946;28;20415;-78
2022/11/24 01:57:22;;;;;;;12.40;2.45;;;7.40;99.90;;;;;;5094599;28;20036;-83
2022/11/24 01:59:50;;;;;;;22.88;3.53;;;7.30;99.90;;;;;;5087390;28;20129;-78
2022/11/24 02:02:17;;;;;;;14.18;2.42;;;7.30;99.90;;;;;;5097872;28;20036;-77
2022/11/24 02:04:44;;;;;;;12.70;2.30;;;7.30;99.90;;;;;;5098759;28;20449;-80
2022/11/24 02:07:11;;;;;;;15.48;2.90;;;7.30;99.90;;;;;;5073576;28;20036;-80
2022/11/24 02:09:54;;;;;;;16.33;1.90;;;7.30;99.90;;;;;;5096702;28;20051;-77
2022/11/24 02:12:25;;;;;;;17.23;2.17;;;7.30;99.90;;;;;;5077455;28;20080;-84
2022/11/24 02:14:53;;;;;;;26.17;2.67;;;7.30;99.90;;;;;;5098723;28;20053;-77
2022/11/24 02:17:19;;;;;;;12.85;2.03;;;7.30;99.90;;;;;;5077174;28;20053;-82
2022/11/24 02:19:55;;;;;;;9.67;1.90;;;7.30;99.90;;;;;;5094386;28;20111;-78
2022/11/24 02:22:28;;;;;;;14.25;2.40;;;7.30;99.90;;;;;;5089582;28;20028;-82
2022/11/24 02:25:00;;;;;;;13.68;2.45;;;7.30;99.90;;;;;;5079219;28;20020;-84
2022/11/24 02:27:26;;;;;;;7.55;2.25;;;7.30;99.90;;;;;;5096824;28;20029;-81
2022/11/24 02:29:52;;;;;;;17.90;2.63;;;7.30;99.90;;;;;;5094079;28;20043;-77
2022/11/24 02:32:18;;;;;;;26.17;3.27;;;7.40;99.90;;;;;;5078084;28;20113;-76
2022/11/24 02:34:43;;;;;;;15.30;1.83;;;7.30;99.90;;;;;;5095816;28;20067;-81
2022/11/24 02:37:09;;;;;;;18.55;2.35;;;7.30;99.90;;;;;;5096881;28;20295;-82
2022/11/24 02:39:35;;;;;;;17.60;2.97;;;7.40;99.90;;;;;;5071764;28;20132;-80
2022/11/24 02:42:09;;;;;;;19.07;2.17;;;7.40;99.90;;;;;;5085826;28;20326;-81
2022/11/24 02:44:41;;;;;;;18.00;2.35;;;7.40;99.90;;;;;;5088513;28;20024;-83
2022/11/24 02:47:10;;;;;;;20.50;2.17;;;7.40;99.90;;;;;;5071243;28;20032;-80
2022/11/24 02:49:36;;;;;;;11.95;2.45;;;7.50;99.90;;;;;;5097065;28;20377;-80
2022/11/24 02:52:03;;;;;;;8.82;2.28;;;7.40;99.90;;;;;;5058663;28;20028;-78
2022/11/24 02:54:29;;;;;;;12.07;1.95;;;7.40;99.90;;;;;;5049857;23;20037;-82
2022/11/24 02:56:55;;;;;;;13.27;2.17;;;7.40;99.90;;;;;;5057880;28;20065;-84
2022/11/24 02:59:21;;;;;;;9.40;1.83;;;7.40;99.90;;;;;;5065726;28;20463;-78
2022/11/24 03:01:46;;;;;;;8.23;1.50;;;7.40;99.90;;;;;;5061535;28;20067;-80
2022/11/24 03:04:12;;;;;;;10.50;2.00;;;7.40;99.90;;;;;;5056022;28;20029;-80
2022/11/24 03:06:38;;;;;;;11.53;2.03;;;7.40;99.90;;;;;;5058083;28;20321;-80
2022/11/24 03:09:04;;;;;;;15.97;2.60;;;7.40;99.90;;;;;;5070686;28;20052;-82
2022/11/24 03:11:30;;;;;;;15.57;2.83;;;7.40;99.90;;;;;;5059612;28;20029;-81
2022/11/24 03:13:56;;;;;;;16.70;2.27;;;7.40;99.90;;;;;;5071599;28;20112;-88
2022/11/24 03:16:22;;;;;;;16.02;3.33;;;7.40;99.90;;;;;;5075452;28;20434;-82
2022/11/24 03:18:50;;;;;;;9.32;2.20;;;7.40;99.90;;;;;;5065198;28;20554;-77
2022/11/24 03:21:16;;;;;;;12.10;2.03;;;7.40;99.90;;;;;;5059840;28;20021;-88
2022/11/24 03:23:41;;;;;;;13.00;1.87;;;7.40;99.90;;;;;;5074829;28;20086;-78
2022/11/24 03:26:14;;;;;;;15.23;2.23;;;7.30;99.90;;;;;;5075208;28;20016;-79
2022/11/24 03:28:40;;;;;;;9.52;1.75;;;7.30;99.90;;;;;;5064584;28;21767;-81
2022/11/24 03:31:06;;;;;;;10.53;1.30;;;7.30;99.90;;;;;;5061561;28;20087;-76
2022/11/24 03:33:33;;;;;;;8.70;2.40;;;7.30;99.90;;;;;;5072613;28;20024;-76
2022/11/24 03:35:59;;;;;;;8.35;2.17;;;7.30;99.90;;;;;;5074117;28;20033;-85
2022/11/24 03:38:25;;;;;;;13.68;1.70;;;7.30;99.90;;;;;;5056437;28;20021;-78
2022/11/24 03:40:50;;;;;;;13.70;1.47;;;7.30;99.90;;;;;;5070405;28;20032;-76
2022/11/24 03:43:16;;;;;;;7.60;1.37;;;7.20;99.90;;;;;;5064946;28;20404;-76
2022/11/24 03:45:49;;;;;;;6.23;1.10;;;7.10;99.90;;;;;;5065670;28;20020;-78
2022/11/24 03:48:16;;;;;;;5.47;1.20;;;7.20;99.90;;;;;;5072789;28;20024;-78
2022/11/24 03:50:42;;;;;;;9.43;0.80;;;7.20;99.90;;;;;;5062950;28;20028;-85
2022/11/24 03:53:09;;;;;;;10.40;1.10;;;7.20;99.90;;;;;;5070991;28;20453;-87
2022/11/24 03:55:34;;;;;;;4.85;0.63;;;7.20;99.90;;;;;;5080367;28;20024;-78
2022/11/24 03:58:00;;;;;;;5.23;1.10;;;7.20;99.90;;;;;;5083966;28;20048;-79
2022/11/24 04:00:26;;;;;;;4.73;1.30;;;7.20;99.90;;;;;;5087335;28;20023;-79
2022/11/24 04:02:53;;;;;;;6.50;0.70;;;7.20;99.90;;;;;;5088998;28;20103;-79
2022/11/24 04:05:19;;;;;;;9.27;1.25;;;7.30;99.90;;;;;;5085042;28;20020;-85
2022/11/24 04:07:44;;;;;;;6.40;1.10;;;7.30;99.90;;;;;;5069624;28;20028;-81
2022/11/24 04:10:10;;;;;;;3.92;1.10;;;7.30;99.90;;;;;;5089101;28;20263;-81
2022/11/24 04:12:45;;;;;;;9.95;1.25;;;7.30;99.90;;;;;;5076300;28;20025;-80
2022/11/24 04:15:20;;;;;;;10.43;1.23;;;7.30;99.90;;;;;;5077377;28;20040;-82
2022/11/24 04:17:47;;;;;;;4.78;0.80;;;7.30;99.90;;;;;;5081951;28;20024;-79
2022/11/24 04:20:13;;;;;;;2.47;0.82;;;7.40;99.90;;;;;;5081661;28;20103;-82
2022/11/24 04:22:39;;;;;;;2.05;0.95;;;7.40;99.90;;;;;;5080077;28;20061;-86
2022/11/24 04:25:06;;;;;;;4.75;0.70;;;7.40;99.90;;;;;;5078626;28;20033;-83
2022/11/24 04:27:33;;;;;;;8.43;1.42;;;7.50;99.90;;;;;;5077770;28;20044;-82
2022/11/24 04:29:58;;;;;;;6.85;1.30;;;7.50;99.90;;;;;;5083868;28;20059;-78
2022/11/24 04:32:24;;;;;;;5.63;1.07;;;7.50;99.90;;;;;;5081463;28;20646;-78
2022/11/24 04:34:50;;;;;;;11.93;1.83;;;7.50;99.90;;;;;;5090973;28;20033;-77
2022/11/24 04:37:16;;;;;;;9.10;1.87;;;7.50;99.90;;;;;;5078151;28;20024;-81
2022/11/24 04:39:41;;;;;;;8.93;2.03;;;7.50;99.90;;;;;;5081247;28;20059;-78
2022/11/24 04:42:07;;;;;;;13.57;1.65;;;7.50;99.90;;;;;;5092264;28;20312;-80
2022/11/24 04:44:33;;;;;;;13.20;2.07;;;7.50;99.90;;;;;;5082530;28;20025;-82
2022/11/24 04:46:59;;;;;;;17.45;2.10;;;7.50;99.90;;;;;;5072204;28;20311;-77
2022/11/24 04:49:25;;;;;;;15.38;2.35;;;7.50;99.90;;;;;;5081625;28;20111;-81
2022/11/24 04:51:51;;;;;;;6.33;2.23;;;7.60;99.90;;;;;;5092244;28;20128;-77
2022/11/24 04:54:16;;;;;;;14.45;2.80;;;7.60;99.90;;;;;;5068600;28;20044;-81
2022/11/24 04:56:42;;;;;;;13.23;3.10;;;7.60;99.90;;;;;;5077438;28;20457;-82
2022/11/24 04:59:18;;;;;;;4.83;1.87;;;7.60;99.90;;;;;;5093770;28;20429;-80
2022/11/24 05:01:45;;;;;;;13.90;2.70;;;7.60;99.90;;;;;;5081776;28;20070;-81
2022/11/24 05:04:12;;;;;;;;;;;7.60;99.90;;;;;;5079227;28;20025;-78
2022/11/24 05:06:38;;;;;;;7.70;3.08;;;7.60;99.90;;;;;;5082983;28;20294;-78
2022/11/24 05:09:05;;;;;;;13.80;2.83;;;7.60;99.90;;;;;;5075352;28;20037;-82
2022/11/24 05:11:32;;;;;;;13.02;3.13;;;7.60;99.90;;;;;;5077328;28;20059;-79
2022/11/24 05:13:57;;;;;;;8.07;2.78;;;7.60;99.90;;;;;;5080153;28;20031;-78
2022/11/24 05:16:23;;;;;;;17.33;3.75;;;7.60;99.90;;;;;;5079266;28;20028;-80
2022/11/24 05:18:49;;;;;;;13.23;4.43;;;7.60;99.90;;;;;;5076938;28;20111;-83
2022/11/24 05:21:14;;;;;;;6.63;2.70;;;7.60;99.90;;;;;;5085727;28;20028;-80
2022/11/24 05:23:40;;;;;;;3.77;1.60;;;7.60;99.90;;;;;;5081558;28;20041;-77
2022/11/24 05:26:06;;;;;;;11.17;1.73;;;7.60;99.90;;;;;;5083587;28;20029;-80
2022/11/24 05:28:32;;;;;;;2.95;1.05;;;7.50;99.90;;;;;;5084351;28;20025;-82
2022/11/24 05:31:01;;;;;;;3.70;1.33;;;7.50;99.90;;;;;;5093366;28;20059;-81
2022/11/24 05:33:28;;;;;;;3.05;1.33;;;7.40;99.90;;;;;;5085428;28;20315;-82
2022/11/24 05:35:58;;;;;;;;;;;7.40;99.90;;;;;;5079730;28;20024;-76
2022/11/24 05:38:25;;;;;;;8.07;1.30;;;7.30;99.90;;;;;;5077930;28;19908;-76
2022/11/24 05:40:51;;;;;;;6.53;1.10;;;7.30;99.90;;;;;;5082824;28;20032;-76
2022/11/24 05:43:17;;;;;;;2.28;0.63;;;7.30;99.90;;;;;;5085414;28;20035;-82
2022/11/24 05:45:43;;;;;;;2.95;0.60;;;7.20;99.90;;;;;;5085292;28;20461;-77
2022/11/24 05:48:14;;;;;;;5.40;1.00;;;7.20;99.90;;;;;;5090649;28;20034;-81
2022/11/24 05:50:39;;;;;;;2.78;0.73;;;7.10;99.90;;;;;;5086709;28;20498;-86
2022/11/24 05:53:08;;;;;;;1.63;0.70;;;7.10;99.90;;;;;;5084417;28;20048;-80
2022/11/24 05:55:35;;;;;;;1.50;0.90;;;7.10;99.90;;;;;;5083602;28;20030;-88
2022/11/24 05:58:03;;;;;;;4.43;0.90;;;7.00;99.90;;;;;;5092329;28;20035;-84
2022/11/24 06:00:30;;;;;;;2.90;0.60;;;7.00;99.90;;;;;;5092656;28;20035;-78
2022/11/24 06:02:57;;;;;;;2.08;0.70;;;7.00;99.90;;;;;;5093762;28;20028;-77
2022/11/24 06:05:23;;;;;;;3.10;1.00;;;7.00;99.90;;;;;;5090249;28;20023;-77
2022/11/24 06:07:50;;;;;;;2.05;0.60;;;7.00;99.90;;;;;;5094964;28;20028;-77
2022/11/24 06:10:16;;;;;;;0.73;0.52;;;7.00;99.90;;;;;;5079929;28;20017;-81
2022/11/24 06:13:05;;;;;;;5.80;0.70;;;6.90;99.90;;;;;;5079104;28;20062;-85
2022/11/24 06:15:31;;;;;;;2.00;0.55;;;6.90;99.90;;;;;;5084356;28;20426;-83
2022/11/24 06:17:57;;;;;;;3.22;0.40;;;6.90;99.90;;;;;;5086391;28;20036;-83
2022/11/24 06:20:23;;;;;;;5.95;0.85;;;6.90;99.90;;;;;;5090807;28;20028;-82
2022/11/24 06:22:49;;;;;;;2.92;0.85;;;6.80;99.90;;;;;;5080251;28;20115;-81
2022/11/24 06:25:15;;;;;;;2.73;0.80;;;6.80;99.90;;;;;;5094401;28;20169;-86
2022/11/24 06:27:40;;;;;;;1.63;0.80;;;6.90;99.90;;;;;;5080432;28;20028;-79
2022/11/24 06:30:07;;;;;;;4.15;0.77;;;6.90;99.90;;;;;;5085245;28;20021;-81
2022/11/24 06:32:32;;;;;;;2.03;0.95;;;6.90;99.90;;;;;;5085172;28;20025;-81
2022/11/24 06:34:58;;;;;;;2.75;0.63;;;6.90;99.90;;;;;;5092560;28;20036;-84
2022/11/24 06:37:24;;;;;;;1.47;0.80;;;6.90;99.90;;;;;;5091293;28;20039;-78
2022/11/24 06:39:49;;;;;;;3.97;0.80;;;6.80;99.90;;;;;;5091406;28;20035;-79
2022/11/24 06:42:18;;;;;;;1.47;0.77;;;6.80;99.90;;;;;;5090889;28;20039;-76
2022/11/24 06:44:47;;;;;;;0.90;0.90;;;6.80;99.90;;;;;;5088960;28;20027;-87
2022/11/24 06:47:13;;;;;;;2.80;1.02;;;6.80;99.90;;;;;;5092547;28;20441;-78
2022/11/24 06:49:39;;;;;;;6.65;1.27;;;6.80;99.90;;;;;;5092970;28;20496;-78
2022/11/24 06:52:05;;;;;;;1.70;1.42;;;6.80;99.90;;;;;;5094785;28;20099;-78
2022/11/24 06:54:30;;;;;;;4.85;1.38;;;6.70;99.90;;;;;;5093685;28;20071;-77
2022/11/24 06:56:57;;;;;;;8.20;1.80;;;6.70;99.90;;;;;;5094685;28;20032;-77
2022/11/24 06:59:25;;;;;;;4.53;1.48;;;6.70;99.90;;;;;;5091832;28;20024;-76
2022/11/24 07:01:51;;;;;;;5.68;1.52;;;6.80;99.90;;;;;;5089235;28;20093;-78
2022/11/24 07:04:17;;;;;;;3.47;1.63;;;6.80;99.90;;;;;;5092946;28;20311;-77
2022/11/24 07:06:45;;;;;;;8.50;2.10;;;6.80;99.90;;;;;;5088017;28;20306;-77
2022/11/24 07:09:12;;;;;;;3.00;1.57;;;6.80;99.90;;;;;;5092050;28;20012;-78
2022/11/24 07:11:38;;;;;;;8.02;2.05;;;6.80;99.90;;;;;;5093610;28;20314;-76
2022/11/24 07:14:04;;;;;;;7.88;1.70;;;6.80;99.90;;;;;;5083550;28;20024;-78
2022/11/24 07:16:31;;;;;;;4.45;2.30;;;6.80;99.90;;;;;;5094532;28;20338;-82
2022/11/24 07:18:57;;;;;;;4.43;2.47;;;6.70;99.90;;;;;;5073499;28;20043;-79
2022/11/24 07:21:24;;;;;;;15.27;2.80;;;6.70;99.90;;;;;;5102648;28;20120;-85
2022/11/24 07:23:51;;;;;;;6.95;3.00;;;6.80;99.90;;;;;;5084887;28;20390;-77
2022/11/24 07:26:17;;;;;;;11.60;3.17;;;6.90;99.90;;;;;;5092102;28;20024;-85
2022/11/24 07:28:43;;;;;;;12.38;3.20;;;6.80;99.90;;;;;;5087733;28;20343;-85
2022/11/24 07:31:11;;;;;;;12.20;3.57;;;6.90;99.90;;;;;;5092944;28;20032;-85
2022/11/24 07:33:37;;;;;;;7.88;3.42;;;6.90;99.90;;;;;;5095609;28;20054;-85
2022/11/24 07:36:05;;;;;;;8.00;3.72;;;6.90;99.90;;;;;;5083001;28;20094;-76
2022/11/24 07:38:31;;;;;;;10.85;4.57;;;6.90;99.90;;;;;;5093093;28;20040;-78
2022/11/24 07:41:09;;;;;;;11.80;3.97;;;6.90;99.90;;;;;;5085636;28;20040;-80
2022/11/24 07:43:36;;;;;;;8.65;3.63;;;6.90;99.90;;;;;;5088675;28;20028;-83
2022/11/24 07:46:02;;;;;;;18.05;4.00;;;6.80;99.90;;;;;;5091069;28;20020;-83
2022/11/24 07:48:28;;;;;;;15.25;4.32;;;6.80;99.90;;;;;;5091655;28;20061;-84
2022/11/24 07:50:54;;;;;;;11.90;4.23;;;6.80;99.90;;;;;;5090444;28;20115;-85
2022/11/24 07:53:19;;;;;;;11.93;4.70;;;6.80;99.90;;;;;;5081407;28;20129;-89
2022/11/24 07:55:53;;;;;;;14.63;4.43;;;6.90;99.90;;;;;;5090923;28;20409;-78
2022/11/24 07:58:19;;;;;;;8.50;3.95;;;6.90;99.90;;;;;;5088849;28;20070;-77
2022/11/24 08:00:44;;;;;;;15.90;4.20;;;6.90;99.90;;;;;;5090039;28;20055;-87
2022/11/24 08:03:10;;;;;;;8.73;3.53;;;6.90;99.90;;;;;;5087733;28;20028;-76
2022/11/24 08:05:36;;;;;;;8.53;4.23;;;7.00;99.90;;;;;;5083896;28;20052;-82
2022/11/24 08:08:01;;;;;;;16.65;3.92;;;7.10;99.90;;;;;;5088941;28;20023;-78
2022/11/24 08:10:27;;;;;;;8.57;3.95;;;7.00;99.90;;;;;;5089164;28;20038;-76
2022/11/24 08:13:11;;;;;;;16.55;6.80;;;7.00;99.90;;;;;;5078158;28;20029;-84
2022/11/24 08:15:37;;;;;;;15.82;5.28;;;7.00;99.90;;;;;;5089075;28;20024;-83
2022/11/24 08:18:03;;;;;;;8.52;3.58;;;7.00;99.90;;;;;;5083006;28;20105;-79
2022/11/24 08:20:29;;;;;;;7.00;3.50;;;7.00;99.90;;;;;;5085515;28;20059;-80
2022/11/24 08:22:58;;;;;;;16.60;3.70;;;7.00;99.90;;;;;;5082476;28;20112;-79
2022/11/24 08:25:30;;;;;;;8.15;4.32;;;7.10;99.90;;;;;;5084321;28;20028;-77
2022/11/24 08:27:56;;;;;;;13.60;4.00;;;7.10;99.90;;;;;;5089419;28;20029;-75
2022/11/24 08:30:22;;;;;;;11.43;4.07;;;7.20;99.90;;;;;;5079674;28;20024;-84
2022/11/24 08:32:48;;;;;;;8.00;4.00;;;7.20;99.90;;;;;;5092484;28;20371;-83
2022/11/24 08:35:13;;;;;;;19.92;3.72;;;7.40;99.90;;;;;;5082260;28;20020;-85
2022/11/24 08:37:39;;;;;;;12.90;3.70;;;7.50;99.90;;;;;;5089595;28;20069;-75
2022/11/24 08:40:05;;;;;;;16.37;3.70;;;7.50;99.90;;;;;;5085202;28;20033;-78
2022/11/24 08:42:31;;;;;;;12.52;4.10;;;7.60;99.90;;;;;;5090215;28;20052;-76
2022/11/24 08:44:57;;;;;;;12.83;3.70;;;7.60;99.90;;;;;;5075102;28;20028;-76
2022/11/24 08:47:22;;;;;;;13.65;3.35;;;7.70;99.90;;;;;;5088435;28;20016;-87
2022/11/24 08:49:48;;;;;;;8.10;3.78;;;7.70;99.90;;;;;;5086619;28;20122;-77
2022/11/24 08:52:15;;;;;;;11.77;3.83;;;7.70;99.90;;;;;;5084108;28;20027;-86
2022/11/24 08:54:43;;;;;;;14.02;3.40;;;7.70;99.90;;;;;;5090766;28;20346;-76
2022/11/24 08:57:12;;;;;;;18.23;3.70;;;7.70;99.90;;;;;;5093414;28;20036;-87
2022/11/24 08:59:38;;;;;;;13.32;3.53;;;7.70;99.90;;;;;;5084499;28;20078;-86
2022/11/24 09:02:05;;;;;;;10.87;3.37;;;7.80;99.90;;;;;;5091404;28;20020;-84
2022/11/24 09:04:30;;;;;;;8.77;3.13;;;7.90;99.90;;;;;;5090976;28;20038;-81
2022/11/24 09:06:57;;;;;;;11.82;3.25;;;8.00;99.90;;;;;;5090077;28;20029;-85
2022/11/24 09:09:23;;;;;;;13.75;2.47;;;7.90;99.90;;;;;;5082556;28;20016;-79
2022/11/24 09:11:49;;;;;;;6.47;2.13;;;7.90;99.90;;;;;;5087782;28;20107;-87
2022/11/24 09:14:14;;;;;;;11.65;3.38;;;7.80;99.90;;;;;;5086972;28;20043;-84
2022/11/24 09:16:40;;;;;;;10.77;2.42;;;7.80;99.90;;;;;;5092573;28;20048;-88
2022/11/24 09:19:09;;;;;;;18.10;3.00;;;7.80;99.90;;;;;;5079174;28;20024;-84
2022/11/24 09:21:37;;;;;;;4.00;1.90;;;7.90;99.90;;;;;;5089870;28;20357;-86
2022/11/24 09:24:04;;;;;;;10.48;2.80;;;8.00;99.90;;;;;;5074044;28;20054;-77
2022/11/24 09:26:31;;;;;;;;;;;8.20;99.90;;;;;;5094245;28;20036;-86
2022/11/24 09:28:59;;;;;;;12.60;1.92;;;8.40;99.90;;;;;;5087697;28;19991;-78
2022/11/24 09:31:28;;;;;;;6.97;2.03;;;8.60;99.90;;;;;;5091483;28;20031;-87
2022/11/24 09:33:54;;;;;;;12.93;2.83;;;8.70;99.90;;;;;;5096437;28;20553;-84
2022/11/24 09:36:20;;;;;;;12.57;1.83;;;8.70;99.90;;;;;;5081959;28;20038;-83
2022/11/24 09:38:46;;;;;;;12.32;2.40;;;8.70;99.90;;;;;;5098557;28;20028;-84
2022/11/24 09:41:33;;;;;;;6.83;2.23;;;8.80;99.90;;;;;;5094736;28;20081;-78
2022/11/24 09:44:24;;;;;;;13.93;1.90;;;8.70;99.90;;;;;;5093887;28;20024;-78
2022/11/24 09:47:38;;;;;;;8.65;1.92;;;8.80;99.90;;;;;;5079055;28;20435;-82
2022/11/24 09:50:19;;;;;;;12.93;2.03;;;8.80;99.90;;;;;;5070424;28;20046;-85
2022/11/24 09:53:07;;;;;;;10.32;2.10;;;8.80;99.90;;;;;;5093428;28;20030;-76
2022/11/24 09:55:42;;;;;;;10.90;1.98;;;8.80;99.90;;;;;;5095437;28;20044;-80
2022/11/24 09:58:23;;;;;;;6.68;2.42;;;8.90;99.90;;;;;;5088333;28;20046;-85
2022/11/24 10:00:52;;;;;;;7.28;2.25;;;8.90;99.90;;;;;;5093053;28;20111;-84
2022/11/24 10:03:37;;;;;;;21.45;2.33;;;9.00;99.90;;;;;;5095980;28;20028;-79
2022/11/24 10:06:15;;;;;;;10.95;1.90;;;9.10;99.90;;;;;;5085406;28;20028;-80
2022/11/24 10:08:53;;;;;;;10.63;2.17;;;9.20;99.90;;;;;;5091943;28;20056;-78
2022/11/24 10:11:48;;;;;;;14.98;2.28;;;9.20;99.90;;;;;;5094098;28;20756;-83
2022/11/24 10:14:35;;;;;;;9.40;2.15;;;9.20;99.90;;;;;;5072882;28;20059;-84
2022/11/24 10:17:25;;;;;;;10.25;2.05;;;9.30;99.90;;;;;;5082408;28;20051;-77
2022/11/24 10:20:09;;;;;;;9.55;1.35;;;9.40;99.90;;;;;;5079659;28;20162;-86
2022/11/24 10:22:51;;;;;;;10.75;1.77;;;9.40;99.90;;;;;;5083096;28;20116;-83
2022/11/24 10:25:22;;;;;;;12.35;1.85;;;9.40;99.90;;;;;;5088587;28;20019;-80
2022/11/24 10:28:17;;;;;;;10.93;2.08;;;9.50;99.90;;;;;;5093544;28;20027;-83
2022/11/24 10:30:43;;;;;;;20.70;2.55;;;9.50;99.90;;;;;;5081660;28;20032;-83
2022/11/24 10:33:18;;;;;;;17.73;2.33;;;9.70;99.90;;;;;;5093340;28;20434;-80
2022/11/24 10:36:18;;;;;;;23.77;3.28;;;9.80;99.90;;;;;;5086148;28;20411;-81
2022/11/24 10:39:20;;;;;;;14.18;2.13;;;9.90;99.90;;;;;;5077703;28;20074;-83
2022/11/24 10:42:25;;;;;;;14.50;2.45;;;9.90;99.90;;;;;;5058277;28;20370;-82
2022/11/24 10:45:00;;;;;;;15.73;2.80;;;10.00;99.90;;;;;;5070772;28;20047;-80
2022/11/24 10:47:26;;;;;;;16.98;2.95;;;10.10;99.90;;;;;;5090272;28;20019;-84
2022/11/24 10:50:03;;;;;;;14.15;1.67;;;10.10;99.90;;;;;;5091858;28;20097;-77
2022/11/24 10:52:31;;;;;;;;;;;10.20;99.90;;;;;;5089589;28;20050;-77
2022/11/24 10:54:57;;;;;;;11.88;1.77;;;10.10;99.90;;;;;;5087000;28;19931;-80
2022/11/24 10:57:29;;;;;;;13.35;2.35;;;10.00;99.90;;;;;;5081368;28;20040;-80
2022/11/24 10:59:55;;;;;;;24.60;2.05;;;10.00;99.90;;;;;;5090084;28;20423;-80
2022/11/24 11:02:36;;;;;;;20.77;2.42;;;10.00;99.90;;;;;;5096010;28;20036;-79
2022/11/24 11:05:40;;;;;;;14.43;2.63;;;10.00;99.90;;;;;;5089095;28;20162;-79
2022/11/24 11:08:20;;;;;;;18.83;3.17;;;10.10;99.90;;;;;;5104689;28;20059;-82
2022/11/24 11:10:49;;;;;;;9.88;1.75;;;10.20;99.90;;;;;;5091430;28;20024;-77
2022/11/24 11:13:26;;;;;;;24.60;2.20;;;10.30;99.90;;;;;;5090405;28;20115;-79
2022/11/24 11:15:53;;;;;;;19.63;1.55;;;10.30;99.90;;;;;;5089831;28;20024;-84
2022/11/24 11:18:20;;;;;;;11.85;1.92;;;10.40;99.90;;;;;;5106026;28;20035;-83
2022/11/24 11:20:55;;;;;;;;;;;10.30;99.90;;;;;;5089802;28;20127;-82
2022/11/24 11:23:34;;;;;;;11.60;1.75;;;10.30;99.90;;;;;;5081637;28;19961;-79
2022/11/24 11:26:19;;;;;;;15.05;2.20;;;10.40;99.90;;;;;;5091151;28;20027;-81
2022/11/24 11:29:07;;;;;;;10.20;2.03;;;10.40;99.90;;;;;;5083678;28;20398;-80
2022/11/24 11:31:34;;;;;;;12.63;2.33;;;10.40;99.90;;;;;;5088107;28;20310;-83
2022/11/24 11:34:21;;;;;;;19.33;2.92;;;10.50;99.90;;;;;;5094202;28;20028;-79
2022/11/24 11:36:50;;;;;;;16.88;2.70;;;10.60;99.90;;;;;;5087632;28;20040;-78
2022/11/24 11:39:36;;;;;;;16.58;2.40;;;10.60;99.90;;;;;;5076071;28;20036;-81
2022/11/24 11:42:21;;;;;;;;;;;10.60;99.90;;;;;;5085817;28;20020;-79
2022/11/24 11:44:49;;;;;;;17.52;3.40;;;10.60;99.90;;;;;;5084252;28;19969;-81
2022/11/24 11:47:32;;;;;;;18.63;2.58;;;10.70;99.90;;;;;;5089573;28;20510;-82
2022/11/24 11:49:58;;;;;;;23.65;2.88;;;10.80;99.90;;;;;;5077819;28;20323;-79
2022/11/24 11:52:27;;;;;;;15.23;2.13;;;10.80;99.90;;;;;;5090009;28;20024;-76
2022/11/24 11:55:30;;;;;;;14.95;2.40;;;10.80;99.90;;;;;;5081759;28;20048;-78
2022/11/24 11:58:10;;;;;;;17.27;2.15;;;10.90;99.90;;;;;;5080035;28;20379;-77
2022/11/24 12:00:44;;;;;;;19.95;3.85;;;10.90;99.90;;;;;;5085169;28;20024;-82
2022/11/24 12:03:25;;;;;;;15.00;2.97;;;11.00;99.90;;;;;;5083221;28;20119;-81
2022/11/24 12:05:56;;;;;;;16.25;2.33;;;11.00;99.90;;;;;;5081592;28;20020;-78
2022/11/24 12:08:43;;;;;;;18.58;2.78;;;11.10;99.90;;;;;;5082656;28;20016;-77
2022/11/24 12:11:28;;;;;;;17.08;4.20;;;11.10;99.90;;;;;;5084666;28;20450;-83
2022/11/24 12:14:17;;;;;;;16.80;2.97;;;11.10;99.90;;;;;;5091811;28;20020;-82
2022/11/24 12:17:01;;;;;;;12.98;2.70;;;11.00;99.90;;;;;;5082833;28;20051;-79
2022/11/24 12:19:30;;;;;;;8.38;2.38;;;11.00;99.90;;;;;;5082348;28;20044;-81
2022/11/24 12:22:06;;;;;;;18.52;3.22;;;10.90;99.90;;;;;;5091622;28;20111;-76
2022/11/24 12:25:01;;;;;;;15.30;3.72;;;10.90;99.90;;;;;;5080407;28;20025;-77
2022/11/24 12:28:10;;;;;;;10.25;2.75;;;10.90;99.90;;;;;;5086507;28;20059;-80
2022/11/24 12:31:08;;;;;;;8.23;3.17;;;11.00;99.90;;;;;;5085702;28;20020;-77
2022/11/24 12:34:07;;;;;;;17.73;2.58;;;11.00;99.90;;;;;;5086663;28;20055;-78
2022/11/24 12:36:36;;;;;;;24.80;4.50;;;11.00;99.90;;;;;;5059051;28;20031;-79
2022/11/24 12:39:26;;;;;;;14.25;3.40;;;11.00;99.90;;;;;;5082464;28;20020;-81
2022/11/24 12:42:07;;;;;;;17.58;3.22;;;11.00;99.90;;;;;;5092035;28;20085;-79
2022/11/24 12:45:07;;;;;;;15.27;2.40;;;11.00;99.90;;;;;;5080682;28;20112;-77
2022/11/24 12:47:48;;;;;;;16.77;2.97;;;11.10;99.90;;;;;;5084391;28;20025;-76
2022/11/24 12:50:24;;;;;;;11.48;2.92;;;11.10;99.90;;;;;;5084439;28;20034;-82
2022/11/24 12:53:01;;;;;;;12.75;3.38;;;11.10;99.90;;;;;;5085237;28;20161;-78
2022/11/24 12:55:29;;;;;;;21.60;2.55;;;11.20;99.90;;;;;;5080786;28;20050;-83
2022/11/24 12:58:18;;;;;;;14.57;2.50;;;11.10;99.90;;;;;;5088570;28;20178;-82
2022/11/24 13:01:19;;;;;;;16.98;4.00;;;11.10;99.90;;;;;;5088664;28;20032;-80
2022/11/24 13:04:03;;;;;;;20.02;3.47;;;11.10;99.90;;;;;;5088237;28;20130;-79
2022/11/24 13:06:31;;;;;;;18.70;3.10;;;11.20;99.90;;;;;;5090299;28;20022;-81
2022/11/24 13:08:58;;;;;;;17.27;2.50;;;11.00;99.90;;;;;;5089901;28;20486;-76
2022/11/24 13:11:41;;;;;;;15.80;2.22;;;11.00;99.90;;;;;;5075994;28;20458;-82